createdAt,value
2023-02-09T00:04:51.297Z,82.87
2023-02-09T00:09:54.042Z,82.62
2023-02-09T00:14:56.686Z,83.41
2023-02-09T00:19:59.285Z,83.73
2023-02-09T00:25:01.935Z,83.97
2023-02-09T00:30:05.712Z,83.54
2023-02-09T00:35:08.561Z,83.78
2023-02-09T00:40:11.722Z,84.53
2023-02-09T00:45:15.276Z,84.36
2023-02-09T00:50:18.197Z,84.09
2023-02-09T00:55:21.158Z,84.38
2023-02-09T01:00:23.940Z,84.36
2023-02-09T01:05:26.593Z,85.01
2023-02-09T01:10:29.161Z,85.13
2023-02-09T01:15:31.901Z,85.09
2023-02-09T01:20:34.875Z,85.25
2023-02-09T01:25:37.903Z,85.14
2023-02-09T01:30:40.621Z,85.37
2023-02-09T01:35:43.287Z,85.54
2023-02-09T01:40:50.408Z,86.10
2023-02-09T01:45:57.002Z,85.67
2023-02-09T01:51:01.128Z,85.14
2023-02-09T01:56:16.999Z,85.75
2023-02-09T02:01:21.378Z,85.35
2023-02-09T02:06:24.131Z,85.96
2023-02-09T02:11:29.873Z,85.94
2023-02-09T02:16:59.277Z,86.84
2023-02-09T02:22:26.725Z,86.65
2023-02-09T02:27:59.673Z,86.60
2023-02-09T02:33:20.991Z,86.52
2023-02-09T02:38:42.575Z,86.43
2023-02-09T02:44:02.549Z,86.70
2023-02-09T02:49:36.262Z,86.71
2023-02-09T02:54:43.124Z,86.68
2023-02-09T02:59:55.708Z,86.37
2023-02-09T03:05:00.476Z,86.61
2023-02-09T03:10:23.182Z,86.97
2023-02-09T03:15:44.148Z,86.93
2023-02-09T03:21:16.127Z,86.32
2023-02-09T03:26:25.338Z,85.38
2023-02-09T03:31:29.149Z,85.60
2023-02-09T03:36:37.388Z,86.24
2023-02-09T03:41:39.956Z,86.15
2023-02-09T03:46:43.857Z,86.18
2023-02-09T03:51:46.506Z,85.70
2023-02-09T03:56:49.305Z,85.69
2023-02-09T04:01:53.777Z,85.31
2023-02-09T04:06:57.546Z,85.50
2023-02-09T04:12:00.112Z,84.99
2023-02-09T04:17:02.748Z,85.29
2023-02-09T04:22:05.352Z,85.91
2023-02-09T04:27:09.893Z,85.91
2023-02-09T04:32:12.521Z,85.78
2023-02-09T04:37:15.150Z,86.26
2023-02-09T04:42:17.727Z,85.87
2023-02-09T04:47:20.319Z,86.18
2023-02-09T04:52:23.260Z,85.96
2023-02-09T04:57:44.280Z,85.83
2023-02-09T05:02:46.889Z,85.43
2023-02-09T05:07:49.491Z,85.45
2023-02-09T05:12:52.617Z,86.31
2023-02-09T05:17:55.248Z,85.75
2023-02-09T05:22:57.823Z,86.21
2023-02-09T05:28:00.651Z,85.80
2023-02-09T05:33:03.449Z,85.61
2023-02-09T05:38:06.129Z,85.87
2023-02-09T05:43:08.912Z,85.93
2023-02-09T05:48:11.559Z,85.80
2023-02-09T05:53:15.258Z,86.04
2023-02-09T05:58:17.909Z,85.90
2023-02-09T06:03:20.772Z,85.31
2023-02-09T06:08:23.559Z,85.58
2023-02-09T06:13:26.109Z,85.73
2023-02-09T06:18:28.768Z,85.64
2023-02-09T06:23:31.392Z,84.98
2023-02-09T06:28:34.113Z,84.86
2023-02-09T06:33:37.927Z,84.47
2023-02-09T06:38:40.556Z,84.26
2023-02-09T06:43:43.147Z,84.45
2023-02-09T06:48:45.737Z,83.90
2023-02-09T06:53:48.684Z,83.44
2023-02-09T06:58:51.383Z,82.66
2023-02-09T07:03:53.964Z,82.26
2023-02-09T07:08:56.819Z,82.11
2023-02-09T07:13:59.722Z,82.33
2023-02-09T07:19:02.434Z,82.81
2023-02-09T07:24:05.449Z,82.09
2023-02-09T07:29:08.112Z,81.78
2023-02-09T07:34:10.755Z,81.72
2023-02-09T07:39:13.345Z,81.48
2023-02-09T07:44:15.998Z,81.13
2023-02-09T07:49:18.655Z,80.40
2023-02-09T07:54:21.711Z,80.67
2023-02-09T07:59:24.344Z,80.15
2023-02-09T08:04:27.034Z,79.26
2023-02-09T08:09:29.656Z,79.03
2023-02-09T08:14:43.074Z,78.55
2023-02-09T08:19:49.507Z,78.70
2023-02-09T08:24:52.854Z,78.50
2023-02-09T08:29:55.478Z,78.77
2023-02-09T08:34:58.090Z,78.90
2023-02-09T08:40:00.659Z,78.39
2023-02-09T08:45:03.368Z,76.82
2023-02-09T08:50:06.549Z,76.57
2023-02-09T08:55:09.330Z,77.15
2023-02-09T09:00:13.008Z,77.16
2023-02-09T09:05:15.875Z,76.83
2023-02-09T09:10:18.622Z,76.37
2023-02-09T09:15:21.615Z,76.62
2023-02-09T09:20:24.273Z,76.14
2023-02-09T09:25:26.874Z,76.19
2023-02-09T09:30:29.517Z,76.47
2023-02-09T09:35:32.405Z,76.49
2023-02-09T09:40:40.534Z,76.18
2023-02-09T09:45:43.195Z,76.22
2023-02-09T09:50:46.878Z,75.76
2023-02-09T09:55:55.276Z,76.12
2023-02-09T10:00:58.740Z,74.74
2023-02-09T10:06:14.025Z,74.64
2023-02-09T10:11:20.425Z,74.53
2023-02-09T10:16:29.233Z,74.81
2023-02-09T10:21:36.173Z,74.89
2023-02-09T10:26:40.771Z,75.42
2023-02-09T10:32:03.507Z,75.48
2023-02-09T10:37:18.186Z,75.55
2023-02-09T10:42:29.490Z,75.95
2023-02-09T10:47:32.465Z,75.79
2023-02-09T10:52:37.399Z,75.62
2023-02-09T10:57:39.971Z,75.83
2023-02-09T11:02:54.166Z,76.30
2023-02-09T11:08:06.326Z,75.79
2023-02-09T11:13:19.854Z,75.25
2023-02-09T11:18:26.895Z,74.39
2023-02-09T11:23:49.801Z,73.15
2023-02-09T11:29:32.700Z,73.39
2023-02-09T11:35:02.548Z,72.90
2023-02-09T11:40:22.864Z,72.74
2023-02-09T11:45:52.382Z,72.04
2023-02-09T11:51:08.089Z,72.68
2023-02-09T11:56:17.725Z,71.55
2023-02-09T12:01:22.933Z,71.79
2023-02-09T12:06:27.693Z,71.38
2023-02-09T12:12:09.440Z,70.62
2023-02-09T12:17:15.493Z,71.05
2023-02-09T12:22:33.291Z,71.21
2023-02-09T12:27:38.995Z,70.64
2023-02-09T12:32:44.186Z,70.50
2023-02-09T12:38:27.330Z,69.39
2023-02-09T12:43:31.876Z,69.94
2023-02-09T12:48:34.586Z,69.83
2023-02-09T12:53:46.008Z,69.71
2023-02-09T12:58:48.573Z,69.92
2023-02-09T13:04:03.322Z,70.17
2023-02-09T13:09:13.725Z,69.85
2023-02-09T13:14:18.069Z,69.80
2023-02-09T13:19:53.110Z,69.90
2023-02-09T13:25:38.710Z,69.52
2023-02-09T13:30:41.762Z,69.54
2023-02-09T13:36:24.498Z,70.40
2023-02-09T13:41:40.754Z,71.01
2023-02-09T13:46:52.454Z,71.21
2023-02-09T13:52:21.175Z,70.51
2023-02-09T13:57:32.097Z,70.30
2023-02-09T14:02:36.296Z,70.77
2023-02-09T14:07:39.236Z,70.25
2023-02-09T14:12:56.075Z,70.46
2023-02-09T14:17:59.004Z,70.92
2023-02-09T14:23:02.130Z,71.33
2023-02-09T14:28:05.399Z,71.51
2023-02-09T14:33:24.537Z,71.49
2023-02-09T14:38:39.458Z,71.84
2023-02-09T14:43:42.094Z,71.50
2023-02-09T14:48:44.663Z,71.40
2023-02-09T14:53:47.311Z,72.52
2023-02-09T14:58:49.918Z,72.58
2023-02-09T15:03:52.609Z,71.96
2023-02-09T15:08:55.371Z,71.29
2023-02-09T15:14:04.147Z,71.53
2023-02-09T15:19:17.238Z,71.42
2023-02-09T15:24:20.022Z,72.40
2023-02-09T15:29:25.820Z,72.01
2023-02-09T15:34:28.410Z,71.34
2023-02-09T15:39:31.654Z,72.07
2023-02-09T15:44:52.645Z,72.58
2023-02-09T15:49:55.335Z,72.38
2023-02-09T15:54:58.012Z,72.94
2023-02-09T16:00:00.678Z,72.06
2023-02-09T16:05:03.320Z,72.68
2023-02-09T16:10:13.210Z,72.89
2023-02-09T16:15:24.206Z,71.81
2023-02-09T16:20:28.171Z,71.87
2023-02-09T16:25:30.800Z,71.85
2023-02-09T16:30:37.712Z,71.69
2023-02-09T16:35:40.512Z,71.20
2023-02-09T16:40:43.264Z,70.88
2023-02-09T16:46:00.873Z,71.62
2023-02-09T16:51:06.382Z,70.94
2023-02-09T16:56:13.194Z,70.68
2023-02-09T17:01:21.587Z,70.64
2023-02-09T17:06:30.230Z,70.83
2023-02-09T17:11:33.390Z,70.63
2023-02-09T17:16:39.947Z,70.52
2023-02-09T17:21:42.928Z,70.03
2023-02-09T17:26:48.225Z,69.64
2023-02-09T17:31:53.483Z,70.26
2023-02-09T17:37:00.794Z,69.70
2023-02-09T17:42:03.607Z,70.30
2023-02-09T17:47:10.110Z,71.39
2023-02-09T17:52:24.332Z,70.60
2023-02-09T17:57:27.709Z,70.42
2023-02-09T18:02:31.011Z,70.98
2023-02-09T18:07:35.618Z,70.11
2023-02-09T18:12:39.394Z,71.10
2023-02-09T18:17:46.198Z,71.76
2023-02-09T18:22:57.938Z,71.01
2023-02-09T18:28:01.593Z,71.32
2023-02-09T18:33:10.648Z,71.63
2023-02-09T18:38:53.625Z,71.44
2023-02-09T18:44:00.850Z,71.72
2023-02-09T18:49:06.115Z,71.92
2023-02-09T18:54:12.944Z,71.28
2023-02-09T18:59:17.853Z,71.74
2023-02-09T19:04:20.512Z,73.85
2023-02-09T19:09:23.213Z,74.00
2023-02-09T19:14:38.008Z,73.61
2023-02-09T19:19:41.513Z,73.53
2023-02-09T19:24:47.546Z,73.03
2023-02-09T19:30:30.530Z,72.05
2023-02-09T19:35:34.044Z,72.86
2023-02-09T19:41:10.734Z,72.94
2023-02-09T19:46:36.667Z,73.19
2023-02-09T19:51:39.444Z,72.60
2023-02-09T19:57:06.496Z,72.82
2023-02-09T20:02:12.639Z,72.24
2023-02-09T20:07:15.465Z,71.87
2023-02-09T20:12:19.474Z,72.44
2023-02-09T20:17:22.140Z,72.19
2023-02-09T20:22:26.593Z,72.13
2023-02-09T20:27:33.055Z,72.88
2023-02-09T20:32:36.849Z,73.33
2023-02-09T20:37:45.392Z,72.61
2023-02-09T20:43:08.814Z,71.83
2023-02-09T20:48:24.095Z,71.90
2023-02-09T20:53:26.775Z,71.70
2023-02-09T20:58:29.389Z,71.97
2023-02-09T21:03:32.006Z,71.96
2023-02-09T21:08:37.198Z,72.17
2023-02-09T21:13:41.268Z,72.57
2023-02-09T21:18:45.792Z,72.39
2023-02-09T21:23:48.550Z,71.84
2023-02-09T21:28:56.144Z,72.07
2023-02-09T21:33:58.734Z,72.06
2023-02-09T21:39:01.244Z,72.23
2023-02-09T21:44:04.982Z,72.82
2023-02-09T21:49:07.931Z,71.90
2023-02-09T21:54:15.730Z,71.85
2023-02-09T21:59:18.414Z,71.68
2023-02-09T22:04:21.527Z,72.24
2023-02-09T22:09:25.191Z,72.76
2023-02-09T22:14:28.936Z,72.91
2023-02-09T22:19:31.702Z,72.78
2023-02-09T22:24:34.967Z,72.84
2023-02-09T22:29:37.690Z,72.57
2023-02-09T22:34:40.250Z,72.06
2023-02-09T22:39:45.009Z,72.08
2023-02-09T22:44:48.072Z,72.18
2023-02-09T22:49:50.754Z,73.00
2023-02-09T22:54:53.301Z,74.74
2023-02-09T22:59:56.068Z,74.35
2023-02-09T23:04:58.640Z,74.29
2023-02-09T23:10:01.266Z,73.94
2023-02-09T23:15:06.110Z,74.33
2023-02-09T23:20:09.057Z,74.38
2023-02-09T23:25:11.589Z,73.29
2023-02-09T23:30:15.407Z,73.18
2023-02-09T23:35:18.064Z,73.22
2023-02-09T23:40:20.633Z,72.94
2023-02-09T23:45:23.450Z,73.04
2023-02-09T23:50:26.470Z,72.66
2023-02-09T23:55:29.167Z,72.69
